sensor_id;sensor_type;location;lat;lon;timestamp;pressure;altitude;pressure_sealevel;temperature;humidity
64503;BME280;50971;51.940;21.258;2024-02-28T00:04:25;100517.46;;;8.75;100.00
64503;BME280;50971;51.940;21.258;2024-02-28T00:14:27;100518.14;;;8.67;100.00
64503;BME280;50971;51.940;21.258;2024-02-28T00:24:28;100526.80;;;8.74;100.00
64503;BME280;50971;51.940;21.258;2024-02-28T00:34:31;100531.45;;;8.84;100.00
64503;BME280;50971;51.940;21.258;2024-02-28T00:44:33;100533.66;;;8.75;100.00
64503;BME280;50971;51.940;21.258;2024-02-28T00:54:35;100537.85;;;8.65;100.00
64503;BME280;50971;51.940;21.258;2024-02-28T01:04:36;100540.70;;;8.71;100.00
64503;BME280;50971;51.940;21.258;2024-02-28T01:14:38;100538.46;;;8.81;100.00
64503;BME280;50971;51.940;21.258;2024-02-28T01:24:40;100542.20;;;8.78;100.00
64503;BME280;50971;51.940;21.258;2024-02-28T01:34:42;100559.73;;;8.70;100.00
64503;BME280;50971;51.940;21.258;2024-02-28T01:44:47;100557.33;;;8.77;100.00
64503;BME280;50971;51.940;21.258;2024-02-28T01:54:50;100559.94;;;8.95;100.00
64503;BME280;50971;51.940;21.258;2024-02-28T02:04:52;100549.14;;;9.10;100.00
64503;BME280;50971;51.940;21.258;2024-02-28T02:14:54;100547.23;;;9.00;100.00
64503;BME280;50971;51.940;21.258;2024-02-28T02:24:56;100554.55;;;8.77;100.00
64503;BME280;50971;51.940;21.258;2024-02-28T02:34:58;100561.60;;;8.76;100.00
64503;BME280;50971;51.940;21.258;2024-02-28T02:45:00;100541.59;;;8.68;100.00
64503;BME280;50971;51.940;21.258;2024-02-28T02:55:02;100556.71;;;8.48;100.00
64503;BME280;50971;51.940;21.258;2024-02-28T03:05:04;100576.24;;;8.39;100.00
64503;BME280;50971;51.940;21.258;2024-02-28T03:15:06;100579.48;;;8.37;100.00
64503;BME280;50971;51.940;21.258;2024-02-28T03:25:09;100579.63;;;8.40;100.00
64503;BME280;50971;51.940;21.258;2024-02-28T03:35:11;100567.31;;;8.35;100.00
64503;BME280;50971;51.940;21.258;2024-02-28T03:45:12;100560.66;;;8.18;100.00
64503;BME280;50971;51.940;21.258;2024-02-28T03:55:15;100550.56;;;8.11;100.00
64503;BME280;50971;51.940;21.258;2024-02-28T04:05:17;100568.02;;;8.18;100.00
64503;BME280;50971;51.940;21.258;2024-02-28T04:15:19;100571.52;;;8.24;100.00
64503;BME280;50971;51.940;21.258;2024-02-28T04:25:21;100568.22;;;8.13;100.00
64503;BME280;50971;51.940;21.258;2024-02-28T04:35:23;100561.93;;;7.95;100.00
64503;BME280;50971;51.940;21.258;2024-02-28T04:45:25;100581.25;;;7.95;100.00
64503;BME280;50971;51.940;21.258;2024-02-28T04:55:27;100601.61;;;7.87;100.00
64503;BME280;50971;51.940;21.258;2024-02-28T05:05:28;100614.54;;;7.55;100.00
64503;BME280;50971;51.940;21.258;2024-02-28T05:15:30;100617.78;;;7.49;100.00
64503;BME280;50971;51.940;21.258;2024-02-28T05:25:32;100627.20;;;7.47;100.00
64503;BME280;50971;51.940;21.258;2024-02-28T05:35:33;100631.38;;;7.33;100.00
64503;BME280;50971;51.940;21.258;2024-02-28T05:45:35;100632.23;;;7.36;100.00
64503;BME280;50971;51.940;21.258;2024-02-28T05:55:37;100647.46;;;7.68;100.00
64503;BME280;50971;51.940;21.258;2024-02-28T06:05:39;100657.23;;;8.03;100.00
64503;BME280;50971;51.940;21.258;2024-02-28T06:15:44;100662.27;;;8.22;100.00
64503;BME280;50971;51.940;21.258;2024-02-28T06:25:46;100668.86;;;8.48;100.00
64503;BME280;50971;51.940;21.258;2024-02-28T06:35:47;100669.17;;;8.75;100.00
64503;BME280;50971;51.940;21.258;2024-02-28T06:45:49;100671.59;;;9.00;100.00
64503;BME280;50971;51.940;21.258;2024-02-28T06:55:51;100681.16;;;9.35;100.00
64503;BME280;50971;51.940;21.258;2024-02-28T07:05:53;100687.50;;;9.78;100.00
64503;BME280;50971;51.940;21.258;2024-02-28T07:15:56;100694.06;;;10.01;100.00
64503;BME280;50971;51.940;21.258;2024-02-28T07:25:59;100705.70;;;10.06;100.00
64503;BME280;50971;51.940;21.258;2024-02-28T07:36:13;100705.08;;;10.18;100.00
64503;BME280;50971;51.940;21.258;2024-02-28T07:46:15;100704.71;;;10.35;100.00
64503;BME280;50971;51.940;21.258;2024-02-28T07:56:17;100706.17;;;10.83;100.00
64503;BME280;50971;51.940;21.258;2024-02-28T08:06:19;100708.29;;;11.43;100.00
64503;BME280;50971;51.940;21.258;2024-02-28T08:16:21;100718.38;;;12.01;100.00
64503;BME280;50971;51.940;21.258;2024-02-28T08:26:23;100720.86;;;12.38;100.00
64503;BME280;50971;51.940;21.258;2024-02-28T08:36:25;100719.89;;;12.55;100.00
64503;BME280;50971;51.940;21.258;2024-02-28T08:46:28;100725.21;;;12.72;100.00
64503;BME280;50971;51.940;21.258;2024-02-28T08:56:29;100724.36;;;12.54;100.00
64503;BME280;50971;51.940;21.258;2024-02-28T09:06:31;100729.83;;;12.50;100.00
64503;BME280;50971;51.940;21.258;2024-02-28T09:16:33;100731.30;;;12.68;100.00
64503;BME280;50971;51.940;21.258;2024-02-28T09:26:39;100733.05;;;13.06;100.00
64503;BME280;50971;51.940;21.258;2024-02-28T09:36:42;100739.11;;;13.12;100.00
64503;BME280;50971;51.940;21.258;2024-02-28T09:46:47;100743.86;;;13.19;100.00
64503;BME280;50971;51.940;21.258;2024-02-28T09:56:52;100752.49;;;13.28;100.00
64503;BME280;50971;51.940;21.258;2024-02-28T10:06:54;100752.20;;;13.40;100.00
64503;BME280;50971;51.940;21.258;2024-02-28T10:16:56;100761.06;;;13.21;100.00
64503;BME280;50971;51.940;21.258;2024-02-28T10:27:01;100757.87;;;13.16;100.00
64503;BME280;50971;51.940;21.258;2024-02-28T10:37:03;100754.51;;;13.70;100.00
64503;BME280;50971;51.940;21.258;2024-02-28T10:47:07;100753.52;;;14.77;100.00
64503;BME280;50971;51.940;21.258;2024-02-28T10:57:14;100744.78;;;15.88;100.00
64503;BME280;50971;51.940;21.258;2024-02-28T11:07:21;100746.16;;;16.17;100.00
64503;BME280;50971;51.940;21.258;2024-02-28T11:17:26;100753.34;;;15.63;100.00
64503;BME280;50971;51.940;21.258;2024-02-28T11:27:29;100752.88;;;15.28;100.00
64503;BME280;50971;51.940;21.258;2024-02-28T11:37:31;100748.09;;;15.15;100.00
64503;BME280;50971;51.940;21.258;2024-02-28T11:47:35;100757.31;;;14.90;100.00
64503;BME280;50971;51.940;21.258;2024-02-28T11:57:37;100759.52;;;14.63;100.00
64503;BME280;50971;51.940;21.258;2024-02-28T12:07:39;100749.49;;;15.00;100.00
64503;BME280;50971;51.940;21.258;2024-02-28T12:17:42;100744.86;;;16.14;100.00
64503;BME280;50971;51.940;21.258;2024-02-28T12:27:45;100742.58;;;16.87;100.00
64503;BME280;50971;51.940;21.258;2024-02-28T12:37:46;100745.36;;;17.13;100.00
64503;BME280;50971;51.940;21.258;2024-02-28T12:47:50;100751.70;;;17.42;100.00
64503;BME280;50971;51.940;21.258;2024-02-28T12:57:51;100744.81;;;17.07;100.00
64503;BME280;50971;51.940;21.258;2024-02-28T13:07:53;100743.85;;;16.38;100.00
64503;BME280;50971;51.940;21.258;2024-02-28T13:17:55;100743.04;;;16.23;100.00
64503;BME280;50971;51.940;21.258;2024-02-28T13:27:57;100740.01;;;16.40;100.00
64503;BME280;50971;51.940;21.258;2024-02-28T13:37:59;100740.60;;;16.03;100.00
64503;BME280;50971;51.940;21.258;2024-02-28T13:48:02;100744.85;;;15.42;100.00
64503;BME280;50971;51.940;21.258;2024-02-28T13:58:06;100752.94;;;15.15;100.00
64503;BME280;50971;51.940;21.258;2024-02-28T14:08:08;100764.58;;;14.80;100.00
64503;BME280;50971;51.940;21.258;2024-02-28T14:18:12;100772.95;;;14.21;100.00
64503;BME280;50971;51.940;21.258;2024-02-28T14:28:13;100774.26;;;13.70;100.00
64503;BME280;50971;51.940;21.258;2024-02-28T14:38:15;100795.13;;;13.16;100.00
64503;BME280;50971;51.940;21.258;2024-02-28T14:48:17;100809.95;;;12.32;100.00
64503;BME280;50971;51.940;21.258;2024-02-28T14:58:19;100822.95;;;11.57;100.00
64503;BME280;50971;51.940;21.258;2024-02-28T15:08:21;100838.98;;;10.87;100.00
64503;BME280;50971;51.940;21.258;2024-02-28T15:18:23;100856.44;;;10.50;100.00
64503;BME280;50971;51.940;21.258;2024-02-28T15:28:24;100863.38;;;10.24;100.00
64503;BME280;50971;51.940;21.258;2024-02-28T16:55:36;100943.98;;;9.25;100.00
64503;BME280;50971;51.940;21.258;2024-02-28T17:05:37;100954.06;;;9.29;100.00
64503;BME280;50971;51.940;21.258;2024-02-28T17:15:43;100963.38;;;9.34;100.00
64503;BME280;50971;51.940;21.258;2024-02-28T17:25:45;100962.88;;;9.39;100.00
64503;BME280;50971;51.940;21.258;2024-02-28T17:35:47;100958.14;;;9.23;100.00
64503;BME280;50971;51.940;21.258;2024-02-28T17:45:49;100964.66;;;9.02;100.00
64503;BME280;50971;51.940;21.258;2024-02-28T17:55:52;100964.73;;;9.00;100.00
64503;BME280;50971;51.940;21.258;2024-02-28T18:05:54;100966.75;;;9.02;100.00
64503;BME280;50971;51.940;21.258;2024-02-28T18:15:55;100969.94;;;9.07;100.00
64503;BME280;50971;51.940;21.258;2024-02-28T18:25:57;100971.18;;;9.11;100.00
64503;BME280;50971;51.940;21.258;2024-02-28T18:35:59;100978.33;;;9.00;100.00
64503;BME280;50971;51.940;21.258;2024-02-28T18:46:01;100981.57;;;8.87;100.00
64503;BME280;50971;51.940;21.258;2024-02-28T18:56:04;100992.22;;;8.92;100.00
64503;BME280;50971;51.940;21.258;2024-02-28T19:06:09;100999.83;;;9.05;100.00
64503;BME280;50971;51.940;21.258;2024-02-28T19:16:12;101008.71;;;9.10;100.00
64503;BME280;50971;51.940;21.258;2024-02-28T19:26:16;101014.58;;;8.98;100.00
64503;BME280;50971;51.940;21.258;2024-02-28T19:36:18;101006.60;;;8.99;100.00
64503;BME280;50971;51.940;21.258;2024-02-28T19:46:20;101023.60;;;8.93;100.00
64503;BME280;50971;51.940;21.258;2024-02-28T19:56:23;101028.87;;;8.79;100.00
64503;BME280;50971;51.940;21.258;2024-02-28T20:06:27;101027.73;;;8.70;100.00
64503;BME280;50971;51.940;21.258;2024-02-28T20:16:29;101042.59;;;8.70;100.00
64503;BME280;50971;51.940;21.258;2024-02-28T20:26:31;101055.09;;;8.65;100.00
64503;BME280;50971;51.940;21.258;2024-02-28T20:36:33;101059.90;;;8.55;100.00
64503;BME280;50971;51.940;21.258;2024-02-28T20:46:38;101067.58;;;8.51;100.00
64503;BME280;50971;51.940;21.258;2024-02-28T20:56:40;101068.52;;;8.44;100.00
64503;BME280;50971;51.940;21.258;2024-02-28T21:06:42;101085.77;;;8.32;100.00
64503;BME280;50971;51.940;21.258;2024-02-28T21:16:44;101096.14;;;8.31;100.00
64503;BME280;50971;51.940;21.258;2024-02-28T21:26:46;101109.84;;;8.37;100.00
64503;BME280;50971;51.940;21.258;2024-02-28T21:36:48;101113.64;;;8.32;100.00
64503;BME280;50971;51.940;21.258;2024-02-28T21:46:49;101117.96;;;8.13;100.00
64503;BME280;50971;51.940;21.258;2024-02-28T21:56:51;101122.38;;;8.07;100.00
64503;BME280;50971;51.940;21.258;2024-02-28T22:06:53;101138.55;;;8.05;100.00
64503;BME280;50971;51.940;21.258;2024-02-28T22:16:55;101135.93;;;8.04;100.00
64503;BME280;50971;51.940;21.258;2024-02-28T22:26:57;101147.33;;;7.91;100.00
64503;BME280;50971;51.940;21.258;2024-02-28T22:36:59;101166.68;;;7.91;100.00
64503;BME280;50971;51.940;21.258;2024-02-28T22:47:02;101162.67;;;7.99;100.00
64503;BME280;50971;51.940;21.258;2024-02-28T22:57:04;101155.19;;;7.93;100.00
64503;BME280;50971;51.940;21.258;2024-02-28T23:07:05;101162.58;;;7.86;100.00
64503;BME280;50971;51.940;21.258;2024-02-28T23:17:07;101163.23;;;7.84;100.00
64503;BME280;50971;51.940;21.258;2024-02-28T23:27:11;101162.78;;;7.72;100.00
64503;BME280;50971;51.940;21.258;2024-02-28T23:37:15;101168.96;;;7.68;100.00
64503;BME280;50971;51.940;21.258;2024-02-28T23:47:17;101173.73;;;7.71;100.00
64503;BME280;50971;51.940;21.258;2024-02-28T23:57:19;101168.38;;;7.55;100.00
